sensor_id;sensor_type;location;lat;lon;timestamp;pressure;altitude;pressure_sealevel;temperature;humidity
61394;BME280;48555;50.952;-0.120;2023-08-21T00:02:19;101896.34;;;18.98;79.17
61394;BME280;48555;50.952;-0.120;2023-08-21T00:04:44;101899.13;;;18.97;79.32
61394;BME280;48555;50.952;-0.120;2023-08-21T00:07:10;101901.22;;;18.93;79.23
61394;BME280;48555;50.952;-0.120;2023-08-21T00:09:36;101906.78;;;18.90;78.99
61394;BME280;48555;50.952;-0.120;2023-08-21T00:12:02;101899.38;;;18.84;78.78
61394;BME280;48555;50.952;-0.120;2023-08-21T00:14:27;101898.00;;;18.80;79.32
61394;BME280;48555;50.952;-0.120;2023-08-21T00:16:53;101898.13;;;18.78;79.31
61394;BME280;48555;50.952;-0.120;2023-08-21T00:19:18;101896.28;;;18.79;79.37
61394;BME280;48555;50.952;-0.120;2023-08-21T00:21:43;101892.81;;;18.78;79.49
61394;BME280;48555;50.952;-0.120;2023-08-21T00:24:09;101896.72;;;18.84;79.91
61394;BME280;48555;50.952;-0.120;2023-08-21T00:26:34;101897.16;;;18.89;79.77
61394;BME280;48555;50.952;-0.120;2023-08-21T00:28:59;101895.34;;;18.90;80.09
61394;BME280;48555;50.952;-0.120;2023-08-21T00:31:25;101891.03;;;18.89;80.46
61394;BME280;48555;50.952;-0.120;2023-08-21T00:33:50;101891.03;;;18.89;80.87
61394;BME280;48555;50.952;-0.120;2023-08-21T00:36:15;101889.22;;;18.89;81.05
61394;BME280;48555;50.952;-0.120;2023-08-21T00:38:41;101869.13;;;18.77;81.27
61394;BME280;48555;50.952;-0.120;2023-08-21T00:41:06;101890.88;;;18.90;81.44
61394;BME280;48555;50.952;-0.120;2023-08-21T00:43:31;101891.72;;;18.91;81.57
61394;BME280;48555;50.952;-0.120;2023-08-21T00:45:57;101895.19;;;18.91;81.77
61394;BME280;48555;50.952;-0.120;2023-08-21T00:48:22;101892.72;;;18.90;81.83
61394;BME280;48555;50.952;-0.120;2023-08-21T00:50:48;101879.44;;;18.80;81.92
61394;BME280;48555;50.952;-0.120;2023-08-21T00:53:14;101883.38;;;18.86;81.94
61394;BME280;48555;50.952;-0.120;2023-08-21T00:55:40;101881.09;;;18.81;81.69
61394;BME280;48555;50.952;-0.120;2023-08-21T00:58:06;101894.34;;;18.81;81.70
61394;BME280;48555;50.952;-0.120;2023-08-21T01:00:33;101882.22;;;18.78;81.57
61394;BME280;48555;50.952;-0.120;2023-08-21T01:03:00;101885.69;;;18.79;81.64
61394;BME280;48555;50.952;-0.120;2023-08-21T01:05:25;101878.16;;;18.74;81.26
61394;BME280;48555;50.952;-0.120;2023-08-21T01:08:00;101884.66;;;18.70;81.21
61394;BME280;48555;50.952;-0.120;2023-08-21T01:10:43;101876.16;;;18.67;81.12
61394;BME280;48555;50.952;-0.120;2023-08-21T01:15:50;101885.47;;;18.61;80.73
61394;BME280;48555;50.952;-0.120;2023-08-21T01:18:18;101877.78;;;18.58;80.63
61394;BME280;48555;50.952;-0.120;2023-08-21T01:20:44;101876.97;;;18.57;80.48
61394;BME280;48555;50.952;-0.120;2023-08-21T01:23:10;101880.72;;;18.55;80.76
61394;BME280;48555;50.952;-0.120;2023-08-21T01:25:35;101879.31;;;18.51;80.58
61394;BME280;48555;50.952;-0.120;2023-08-21T01:28:03;101883.34;;;18.45;80.48
61394;BME280;48555;50.952;-0.120;2023-08-21T01:30:30;101889.75;;;18.43;80.64
61394;BME280;48555;50.952;-0.120;2023-08-21T01:33:16;101885.69;;;18.38;80.70
61394;BME280;48555;50.952;-0.120;2023-08-21T01:35:42;101871.03;;;18.34;80.71
61394;BME280;48555;50.952;-0.120;2023-08-21T01:38:08;101878.13;;;18.34;80.60
61394;BME280;48555;50.952;-0.120;2023-08-21T01:40:33;101868.66;;;18.31;80.70
61394;BME280;48555;50.952;-0.120;2023-08-21T01:42:59;101872.38;;;18.29;80.67
61394;BME280;48555;50.952;-0.120;2023-08-21T01:45:24;101874.34;;;18.27;80.63
61394;BME280;48555;50.952;-0.120;2023-08-21T01:47:49;101874.63;;;18.24;80.82
61394;BME280;48555;50.952;-0.120;2023-08-21T01:50:15;101868.16;;;18.16;80.91
61394;BME280;48555;50.952;-0.120;2023-08-21T01:52:40;101872.31;;;18.09;81.35
61394;BME280;48555;50.952;-0.120;2023-08-21T01:55:06;101878.00;;;18.05;81.81
61394;BME280;48555;50.952;-0.120;2023-08-21T01:57:33;101878.13;;;18.03;81.83
61394;BME280;48555;50.952;-0.120;2023-08-21T01:59:58;101884.53;;;18.01;81.97
61394;BME280;48555;50.952;-0.120;2023-08-21T02:02:23;101879.34;;;17.99;81.90
61394;BME280;48555;50.952;-0.120;2023-08-21T02:04:49;101874.88;;;18.00;81.69
61394;BME280;48555;50.952;-0.120;2023-08-21T02:07:14;101873.09;;;18.00;81.78
61394;BME280;48555;50.952;-0.120;2023-08-21T02:09:40;101871.66;;;17.96;81.95
61394;BME280;48555;50.952;-0.120;2023-08-21T02:12:05;101875.75;;;18.00;81.79
61394;BME280;48555;50.952;-0.120;2023-08-21T02:14:31;101875.88;;;17.99;81.89
61394;BME280;48555;50.952;-0.120;2023-08-21T02:16:56;101875.75;;;18.00;82.00
61394;BME280;48555;50.952;-0.120;2023-08-21T02:19:21;101882.13;;;17.98;82.45
61394;BME280;48555;50.952;-0.120;2023-08-21T02:21:47;101887.44;;;17.98;82.54
61394;BME280;48555;50.952;-0.120;2023-08-21T02:24:12;101894.28;;;18.00;83.20
61394;BME280;48555;50.952;-0.120;2023-08-21T02:26:38;101893.03;;;18.04;83.38
61394;BME280;48555;50.952;-0.120;2023-08-21T02:29:03;101896.41;;;18.06;83.60
61394;BME280;48555;50.952;-0.120;2023-08-21T02:31:29;101895.16;;;18.10;83.91
61394;BME280;48555;50.952;-0.120;2023-08-21T02:33:54;101898.38;;;18.14;84.02
61394;BME280;48555;50.952;-0.120;2023-08-21T02:36:19;101888.88;;;18.11;84.29
61394;BME280;48555;50.952;-0.120;2023-08-21T02:38:45;101896.44;;;18.16;84.35
61394;BME280;48555;50.952;-0.120;2023-08-21T02:41:10;101891.59;;;18.21;84.89
61394;BME280;48555;50.952;-0.120;2023-08-21T02:43:35;101894.94;;;18.23;84.77
61394;BME280;48555;50.952;-0.120;2023-08-21T02:46:01;101899.13;;;18.26;85.09
61394;BME280;48555;50.952;-0.120;2023-08-21T02:48:26;101894.81;;;18.25;85.08
61394;BME280;48555;50.952;-0.120;2023-08-21T02:50:51;101895.28;;;18.30;85.22
61394;BME280;48555;50.952;-0.120;2023-08-21T02:53:17;101893.31;;;18.32;85.21
61394;BME280;48555;50.952;-0.120;2023-08-21T02:55:42;101891.53;;;18.32;85.31
61394;BME280;48555;50.952;-0.120;2023-08-21T02:58:08;101897.50;;;18.34;85.55
61394;BME280;48555;50.952;-0.120;2023-08-21T03:00:34;101898.94;;;18.38;85.70
61394;BME280;48555;50.952;-0.120;2023-08-21T03:02:59;101899.50;;;18.42;85.63
61394;BME280;48555;50.952;-0.120;2023-08-21T03:05:24;101895.75;;;18.45;85.61
61394;BME280;48555;50.952;-0.120;2023-08-21T03:07:50;101897.41;;;18.46;85.68
61394;BME280;48555;50.952;-0.120;2023-08-21T03:10:15;101905.09;;;18.49;85.77
61394;BME280;48555;50.952;-0.120;2023-08-21T03:12:40;101897.03;;;18.50;85.81
61394;BME280;48555;50.952;-0.120;2023-08-21T03:15:06;101901.34;;;18.51;85.98
61394;BME280;48555;50.952;-0.120;2023-08-21T03:17:32;101900.38;;;18.52;86.08
61394;BME280;48555;50.952;-0.120;2023-08-21T03:19:57;101903.84;;;18.53;86.20
61394;BME280;48555;50.952;-0.120;2023-08-21T03:22:23;101910.69;;;18.55;86.29
61394;BME280;48555;50.952;-0.120;2023-08-21T03:24:48;101902.75;;;18.55;86.42
61394;BME280;48555;50.952;-0.120;2023-08-21T03:27:16;101904.44;;;18.56;86.17
61394;BME280;48555;50.952;-0.120;2023-08-21T03:29:42;101906.81;;;18.59;86.31
61394;BME280;48555;50.952;-0.120;2023-08-21T03:32:13;101902.19;;;18.61;86.50
61394;BME280;48555;50.952;-0.120;2023-08-21T03:34:39;101894.25;;;18.61;86.44
61394;BME280;48555;50.952;-0.120;2023-08-21T03:37:04;101900.56;;;18.70;86.65
61394;BME280;48555;50.952;-0.120;2023-08-21T03:39:29;101899.59;;;18.71;86.33
61394;BME280;48555;50.952;-0.120;2023-08-21T03:41:55;101905.50;;;18.75;86.29
61394;BME280;48555;50.952;-0.120;2023-08-21T03:44:20;101896.13;;;18.71;86.23
61394;BME280;48555;50.952;-0.120;2023-08-21T03:46:45;101897.56;;;18.75;86.15
61394;BME280;48555;50.952;-0.120;2023-08-21T03:49:11;101887.06;;;18.73;86.67
61394;BME280;48555;50.952;-0.120;2023-08-21T03:51:36;101894.16;;;18.73;86.05
61394;BME280;48555;50.952;-0.120;2023-08-21T03:54:01;101893.81;;;18.77;86.44
61394;BME280;48555;50.952;-0.120;2023-08-21T03:56:27;101896.03;;;18.82;86.30
61394;BME280;48555;50.952;-0.120;2023-08-21T03:58:52;101902.03;;;18.84;86.38
61394;BME280;48555;50.952;-0.120;2023-08-21T04:01:17;101900.94;;;18.87;86.00
61394;BME280;48555;50.952;-0.120;2023-08-21T04:03:43;101899.13;;;18.87;86.14
61394;BME280;48555;50.952;-0.120;2023-08-21T04:06:08;101898.84;;;18.90;86.06
61394;BME280;48555;50.952;-0.120;2023-08-21T04:08:33;101908.34;;;18.93;85.92
61394;BME280;48555;50.952;-0.120;2023-08-21T04:10:58;101902.19;;;18.92;85.62
61394;BME280;48555;50.952;-0.120;2023-08-21T04:13:25;101904.03;;;18.92;85.60
61394;BME280;48555;50.952;-0.120;2023-08-21T04:15:53;101912.81;;;18.92;85.66
61394;BME280;48555;50.952;-0.120;2023-08-21T04:18:19;101906.53;;;18.93;85.65
61394;BME280;48555;50.952;-0.120;2023-08-21T04:20:44;101912.66;;;18.94;85.65
61394;BME280;48555;50.952;-0.120;2023-08-21T04:23:09;101904.44;;;18.97;85.45
61394;BME280;48555;50.952;-0.120;2023-08-21T04:25:35;101914.06;;;18.98;85.19
61394;BME280;48555;50.952;-0.120;2023-08-21T04:28:00;101913.09;;;18.99;85.40
61394;BME280;48555;50.952;-0.120;2023-08-21T04:30:26;101914.91;;;18.98;85.24
61394;BME280;48555;50.952;-0.120;2023-08-21T04:32:51;101916.44;;;19.01;85.01
61394;BME280;48555;50.952;-0.120;2023-08-21T04:35:16;101919.50;;;18.96;85.19
61394;BME280;48555;50.952;-0.120;2023-08-21T04:37:47;101919.66;;;18.95;85.17
61394;BME280;48555;50.952;-0.120;2023-08-21T04:40:13;101921.03;;;18.99;84.92
61394;BME280;48555;50.952;-0.120;2023-08-21T04:42:38;101921.19;;;18.97;85.05
61394;BME280;48555;50.952;-0.120;2023-08-21T04:45:04;101920.91;;;19.00;84.92
61394;BME280;48555;50.952;-0.120;2023-08-21T04:47:31;101920.66;;;19.03;84.79
61394;BME280;48555;50.952;-0.120;2023-08-21T04:49:56;101922.59;;;19.01;84.60
61394;BME280;48555;50.952;-0.120;2023-08-21T04:52:23;101908.78;;;18.98;84.39
61394;BME280;48555;50.952;-0.120;2023-08-21T04:54:49;101911.00;;;19.02;84.77
61394;BME280;48555;50.952;-0.120;2023-08-21T04:57:15;101908.50;;;19.01;84.64
61394;BME280;48555;50.952;-0.120;2023-08-21T04:59:41;101914.47;;;19.03;84.12
61394;BME280;48555;50.952;-0.120;2023-08-21T05:02:06;101919.53;;;19.06;84.00
61394;BME280;48555;50.952;-0.120;2023-08-21T05:04:32;101913.25;;;19.07;83.95
61394;BME280;48555;50.952;-0.120;2023-08-21T05:06:58;101921.91;;;19.09;84.00
61394;BME280;48555;50.952;-0.120;2023-08-21T05:09:23;101912.81;;;19.12;83.82
61394;BME280;48555;50.952;-0.120;2023-08-21T05:11:48;101907.41;;;19.13;83.83
61394;BME280;48555;50.952;-0.120;2023-08-21T05:14:14;101907.00;;;19.18;83.40
61394;BME280;48555;50.952;-0.120;2023-08-21T05:16:39;101909.50;;;19.19;83.36
61394;BME280;48555;50.952;-0.120;2023-08-21T05:19:04;101913.13;;;19.18;83.27
61394;BME280;48555;50.952;-0.120;2023-08-21T05:21:30;101913.25;;;19.17;83.30
61394;BME280;48555;50.952;-0.120;2023-08-21T05:23:55;101912.44;;;19.16;83.43
61394;BME280;48555;50.952;-0.120;2023-08-21T05:26:20;101924.56;;;19.19;83.48
61394;BME280;48555;50.952;-0.120;2023-08-21T05:28:46;101921.66;;;19.22;83.20
61394;BME280;48555;50.952;-0.120;2023-08-21T05:31:11;101920.94;;;19.20;82.94
61394;BME280;48555;50.952;-0.120;2023-08-21T05:33:37;101921.38;;;19.25;83.08
61394;BME280;48555;50.952;-0.120;2023-08-21T05:36:02;101930.03;;;19.27;82.76
61394;BME280;48555;50.952;-0.120;2023-08-21T05:38:28;101924.72;;;19.27;82.69
61394;BME280;48555;50.952;-0.120;2023-08-21T05:40:53;101930.88;;;19.27;82.69
61394;BME280;48555;50.952;-0.120;2023-08-21T05:43:19;101931.56;;;19.29;82.57
61394;BME280;48555;50.952;-0.120;2023-08-21T05:45:44;101935.91;;;19.31;82.53
61394;BME280;48555;50.952;-0.120;2023-08-21T05:48:09;101932.81;;;19.35;82.73
61394;BME280;48555;50.952;-0.120;2023-08-21T05:50:35;101944.97;;;19.38;82.61
61394;BME280;48555;50.952;-0.120;2023-08-21T05:53:03;101940.50;;;19.38;82.04
61394;BME280;48555;50.952;-0.120;2023-08-21T05:55:28;101949.31;;;19.39;82.06
61394;BME280;48555;50.952;-0.120;2023-08-21T05:57:54;101952.53;;;19.42;82.10
61394;BME280;48555;50.952;-0.120;2023-08-21T06:00:19;101951.25;;;19.46;82.12
61394;BME280;48555;50.952;-0.120;2023-08-21T06:02:45;101947.38;;;19.50;82.06
61394;BME280;48555;50.952;-0.120;2023-08-21T06:05:10;101959.63;;;19.51;81.78
61394;BME280;48555;50.952;-0.120;2023-08-21T06:07:35;101955.88;;;19.54;82.05
61394;BME280;48555;50.952;-0.120;2023-08-21T06:10:01;101947.47;;;19.59;81.88
61394;BME280;48555;50.952;-0.120;2023-08-21T06:12:26;101952.38;;;19.63;81.71
61394;BME280;48555;50.952;-0.120;2023-08-21T06:14:51;101949.47;;;19.66;81.75
61394;BME280;48555;50.952;-0.120;2023-08-21T06:17:17;101955.50;;;19.68;81.58
61394;BME280;48555;50.952;-0.120;2023-08-21T06:19:42;101962.19;;;19.72;81.49
61394;BME280;48555;50.952;-0.120;2023-08-21T06:22:07;101959.97;;;19.68;81.38
61394;BME280;48555;50.952;-0.120;2023-08-21T06:24:33;101963.19;;;19.71;81.36
61394;BME280;48555;50.952;-0.120;2023-08-21T06:26:58;101971.81;;;19.73;81.42
61394;BME280;48555;50.952;-0.120;2023-08-21T06:29:24;101971.69;;;19.75;81.27
61394;BME280;48555;50.952;-0.120;2023-08-21T06:31:49;101970.69;;;19.76;81.13
61394;BME280;48555;50.952;-0.120;2023-08-21T06:34:15;101959.81;;;19.69;81.13
61394;BME280;48555;50.952;-0.120;2023-08-21T06:36:40;101977.72;;;19.77;80.57
61394;BME280;48555;50.952;-0.120;2023-08-21T06:39:05;101975.88;;;19.78;81.00
61394;BME280;48555;50.952;-0.120;2023-08-21T06:41:31;101985.50;;;19.79;80.85
61394;BME280;48555;50.952;-0.120;2023-08-21T06:43:57;101983.97;;;19.76;80.68
61394;BME280;48555;50.952;-0.120;2023-08-21T06:46:22;101992.78;;;19.77;80.27
61394;BME280;48555;50.952;-0.120;2023-08-21T06:48:48;101983.84;;;19.78;79.92
61394;BME280;48555;50.952;-0.120;2023-08-21T06:51:15;101975.06;;;19.77;79.75
61394;BME280;48555;50.952;-0.120;2023-08-21T06:53:40;101985.09;;;19.83;79.62
61394;BME280;48555;50.952;-0.120;2023-08-21T06:56:06;101981.06;;;19.89;79.21
61394;BME280;48555;50.952;-0.120;2023-08-21T06:58:32;101969.84;;;19.85;79.18
61394;BME280;48555;50.952;-0.120;2023-08-21T07:00:57;101986.91;;;20.02;79.09
61394;BME280;48555;50.952;-0.120;2023-08-21T07:03:23;101986.59;;;20.05;78.69
61394;BME280;48555;50.952;-0.120;2023-08-21T07:05:55;101986.31;;;20.08;78.47
61394;BME280;48555;50.952;-0.120;2023-08-21T07:08:24;101991.50;;;20.10;78.11
61394;BME280;48555;50.952;-0.120;2023-08-21T07:10:49;101989.28;;;20.15;77.80
61394;BME280;48555;50.952;-0.120;2023-08-21T07:13:15;101986.16;;;20.19;77.67
61394;BME280;48555;50.952;-0.120;2023-08-21T07:15:40;101994.00;;;20.21;77.46
61394;BME280;48555;50.952;-0.120;2023-08-21T07:18:05;101990.06;;;20.25;77.12
61394;BME280;48555;50.952;-0.120;2023-08-21T07:20:31;101996.09;;;20.27;76.77
61394;BME280;48555;50.952;-0.120;2023-08-21T07:22:57;101983.09;;;20.24;76.43
61394;BME280;48555;50.952;-0.120;2023-08-21T07:25:23;101989.50;;;20.31;76.36
61394;BME280;48555;50.952;-0.120;2023-08-21T07:27:50;101989.38;;;20.33;75.87
61394;BME280;48555;50.952;-0.120;2023-08-21T07:30:16;101987.84;;;20.30;75.94
61394;BME280;48555;50.952;-0.120;2023-08-21T07:32:41;101989.66;;;20.30;75.43
61394;BME280;48555;50.952;-0.120;2023-08-21T07:35:07;102001.53;;;20.35;75.52
61394;BME280;48555;50.952;-0.120;2023-08-21T07:37:32;101999.44;;;20.39;75.21
61394;BME280;48555;50.952;-0.120;2023-08-21T07:39:57;102006.00;;;20.45;75.34
61394;BME280;48555;50.952;-0.120;2023-08-21T07:42:23;102002.03;;;20.49;75.09
61394;BME280;48555;50.952;-0.120;2023-08-21T07:44:48;102002.50;;;20.54;74.25
61394;BME280;48555;50.952;-0.120;2023-08-21T07:47:14;102002.50;;;20.54;73.81
61394;BME280;48555;50.952;-0.120;2023-08-21T07:49:39;101998.84;;;20.55;73.99
61394;BME280;48555;50.952;-0.120;2023-08-21T07:52:05;101995.91;;;20.58;73.44
61394;BME280;48555;50.952;-0.120;2023-08-21T07:54:30;102007.53;;;20.57;73.32
61394;BME280;48555;50.952;-0.120;2023-08-21T07:56:55;102008.63;;;20.54;72.79
61394;BME280;48555;50.952;-0.120;2023-08-21T07:59:21;102004.31;;;20.53;73.18
61394;BME280;48555;50.952;-0.120;2023-08-21T08:01:47;102009.63;;;20.53;73.50
61394;BME280;48555;50.952;-0.120;2023-08-21T08:04:12;102016.31;;;20.57;73.73
61394;BME280;48555;50.952;-0.120;2023-08-21T08:06:37;102009.88;;;20.60;73.81
61394;BME280;48555;50.952;-0.120;2023-08-21T08:09:03;102007.63;;;20.65;73.84
61394;BME280;48555;50.952;-0.120;2023-08-21T08:11:31;102016.16;;;20.69;73.56
61394;BME280;48555;50.952;-0.120;2023-08-21T08:13:56;102013.19;;;20.72;73.32
61394;BME280;48555;50.952;-0.120;2023-08-21T08:16:22;102002.13;;;20.76;73.21
61394;BME280;48555;50.952;-0.120;2023-08-21T08:18:47;101999.03;;;20.81;73.10
61394;BME280;48555;50.952;-0.120;2023-08-21T08:21:13;102002.09;;;20.86;73.33
61394;BME280;48555;50.952;-0.120;2023-08-21T08:23:39;102008.34;;;20.95;73.14
61394;BME280;48555;50.952;-0.120;2023-08-21T08:26:04;102013.91;;;21.01;72.72
61394;BME280;48555;50.952;-0.120;2023-08-21T08:28:30;102017.94;;;21.05;72.21
61394;BME280;48555;50.952;-0.120;2023-08-21T08:30:55;102011.50;;;21.08;71.96
61394;BME280;48555;50.952;-0.120;2023-08-21T08:33:20;102012.28;;;21.18;72.02
61394;BME280;48555;50.952;-0.120;2023-08-21T08:35:46;101999.22;;;21.25;71.97
61394;BME280;48555;50.952;-0.120;2023-08-21T08:38:11;101993.25;;;21.41;71.78
61394;BME280;48555;50.952;-0.120;2023-08-21T08:40:42;101996.94;;;21.40;70.93
61394;BME280;48555;50.952;-0.120;2023-08-21T08:43:08;102009.19;;;21.50;69.72
61394;BME280;48555;50.952;-0.120;2023-08-21T08:45:34;101997.09;;;21.56;70.08
61394;BME280;48555;50.952;-0.120;2023-08-21T08:48:00;101997.03;;;21.66;70.01
61394;BME280;48555;50.952;-0.120;2023-08-21T08:50:28;102002.44;;;21.74;69.48
61394;BME280;48555;50.952;-0.120;2023-08-21T08:52:55;101998.59;;;21.76;69.17
61394;BME280;48555;50.952;-0.120;2023-08-21T08:55:22;102001.66;;;21.82;69.01
61394;BME280;48555;50.952;-0.120;2023-08-21T08:57:47;102003.47;;;21.81;67.43
61394;BME280;48555;50.952;-0.120;2023-08-21T09:00:13;101987.78;;;21.96;67.98
61394;BME280;48555;50.952;-0.120;2023-08-21T09:02:38;101996.06;;;22.11;67.85
61394;BME280;48555;50.952;-0.120;2023-08-21T09:05:04;101997.50;;;22.23;67.66
61394;BME280;48555;50.952;-0.120;2023-08-21T09:07:29;101990.56;;;22.30;67.32
61394;BME280;48555;50.952;-0.120;2023-08-21T09:09:55;101994.44;;;22.36;66.67
61394;BME280;48555;50.952;-0.120;2023-08-21T09:12:20;101990.97;;;22.43;66.62
61394;BME280;48555;50.952;-0.120;2023-08-21T09:14:47;101992.53;;;22.54;66.56
61394;BME280;48555;50.952;-0.120;2023-08-21T09:17:13;101989.28;;;22.68;66.00
61394;BME280;48555;50.952;-0.120;2023-08-21T09:19:39;101984.66;;;22.79;65.95
61394;BME280;48555;50.952;-0.120;2023-08-21T09:22:12;101987.03;;;22.90;65.68
61394;BME280;48555;50.952;-0.120;2023-08-21T09:24:38;101991.63;;;22.98;65.60
61394;BME280;48555;50.952;-0.120;2023-08-21T09:27:12;101985.78;;;23.02;65.34
61394;BME280;48555;50.952;-0.120;2023-08-21T09:29:39;101983.63;;;23.06;64.87
61394;BME280;48555;50.952;-0.120;2023-08-21T09:32:05;101986.97;;;23.08;64.75
61394;BME280;48555;50.952;-0.120;2023-08-21T09:34:35;101981.50;;;23.09;64.50
61394;BME280;48555;50.952;-0.120;2023-08-21T09:37:04;101985.00;;;23.10;64.04
61394;BME280;48555;50.952;-0.120;2023-08-21T09:39:35;101989.00;;;23.14;63.56
61394;BME280;48555;50.952;-0.120;2023-08-21T09:42:01;101987.34;;;23.21;63.67
61394;BME280;48555;50.952;-0.120;2023-08-21T09:44:27;101987.38;;;23.38;63.65
61394;BME280;48555;50.952;-0.120;2023-08-21T09:46:52;101988.72;;;23.50;63.47
61394;BME280;48555;50.952;-0.120;2023-08-21T09:49:19;101984.09;;;23.60;63.82
61394;BME280;48555;50.952;-0.120;2023-08-21T09:51:46;101987.28;;;23.72;63.45
61394;BME280;48555;50.952;-0.120;2023-08-21T09:54:12;101988.28;;;23.79;63.20
61394;BME280;48555;50.952;-0.120;2023-08-21T09:56:38;101981.94;;;23.88;62.41
61394;BME280;48555;50.952;-0.120;2023-08-21T09:59:05;101975.44;;;23.99;61.91
61394;BME280;48555;50.952;-0.120;2023-08-21T10:01:33;101982.78;;;24.05;61.94
61394;BME280;48555;50.952;-0.120;2023-08-21T10:04:02;101983.94;;;24.11;61.98
61394;BME280;48555;50.952;-0.120;2023-08-21T10:06:28;101985.78;;;24.18;61.99
61394;BME280;48555;50.952;-0.120;2023-08-21T10:08:56;101982.56;;;24.23;61.96
61394;BME280;48555;50.952;-0.120;2023-08-21T10:11:22;101974.69;;;24.38;61.60
61394;BME280;48555;50.952;-0.120;2023-08-21T10:13:48;101963.16;;;24.54;61.84
61394;BME280;48555;50.952;-0.120;2023-08-21T10:16:16;101963.28;;;24.68;61.13
61394;BME280;48555;50.952;-0.120;2023-08-21T10:18:43;101968.91;;;24.74;60.88
61394;BME280;48555;50.952;-0.120;2023-08-21T10:21:15;101972.72;;;24.87;59.67
61394;BME280;48555;50.952;-0.120;2023-08-21T10:23:41;101975.88;;;24.91;59.20
61394;BME280;48555;50.952;-0.120;2023-08-21T10:26:09;101969.66;;;24.99;59.16
61394;BME280;48555;50.952;-0.120;2023-08-21T10:33:56;101962.03;;;25.65;59.36
61394;BME280;48555;50.952;-0.120;2023-08-21T10:39:21;101965.72;;;26.10;57.77
61394;BME280;48555;50.952;-0.120;2023-08-21T10:42:07;101960.28;;;26.18;56.48
61394;BME280;48555;50.952;-0.120;2023-08-21T10:44:46;101968.66;;;26.29;55.92
61394;BME280;48555;50.952;-0.120;2023-08-21T10:47:23;101959.63;;;26.45;55.54
61394;BME280;48555;50.952;-0.120;2023-08-21T10:50:06;101964.63;;;26.48;56.03
61394;BME280;48555;50.952;-0.120;2023-08-21T10:52:36;101962.47;;;26.44;55.09
61394;BME280;48555;50.952;-0.120;2023-08-21T10:55:03;101958.06;;;26.36;54.72
61394;BME280;48555;50.952;-0.120;2023-08-21T10:57:32;101959.06;;;26.35;54.37
61394;BME280;48555;50.952;-0.120;2023-08-21T11:00:06;101954.81;;;26.41;54.61
61394;BME280;48555;50.952;-0.120;2023-08-21T11:02:37;101949.56;;;26.47;55.15
61394;BME280;48555;50.952;-0.120;2023-08-21T11:05:04;101950.38;;;26.48;54.41
61394;BME280;48555;50.952;-0.120;2023-08-21T11:07:29;101945.56;;;26.43;53.97
61394;BME280;48555;50.952;-0.120;2023-08-21T11:09:56;101950.09;;;26.43;53.93
61394;BME280;48555;50.952;-0.120;2023-08-21T11:12:23;101936.41;;;26.38;53.26
61394;BME280;48555;50.952;-0.120;2023-08-21T11:14:49;101925.69;;;26.23;53.44
61394;BME280;48555;50.952;-0.120;2023-08-21T11:17:15;101944.00;;;26.19;53.25
61394;BME280;48555;50.952;-0.120;2023-08-21T11:19:41;101938.72;;;26.26;53.28
61394;BME280;48555;50.952;-0.120;2023-08-21T11:22:07;101946.97;;;26.24;53.43
61394;BME280;48555;50.952;-0.120;2023-08-21T11:26:58;101945.38;;;26.45;53.84
61394;BME280;48555;50.952;-0.120;2023-08-21T11:29:24;101941.31;;;26.49;53.36
61394;BME280;48555;50.952;-0.120;2023-08-21T11:31:49;101945.56;;;26.58;53.04
61394;BME280;48555;50.952;-0.120;2023-08-21T11:34:18;101936.97;;;26.63;53.60
61394;BME280;48555;50.952;-0.120;2023-08-21T11:36:45;101941.88;;;26.74;53.87
61394;BME280;48555;50.952;-0.120;2023-08-21T11:39:10;101943.44;;;26.83;54.20
61394;BME280;48555;50.952;-0.120;2023-08-21T11:41:53;101939.53;;;26.86;53.09
61394;BME280;48555;50.952;-0.120;2023-08-21T11:44:19;101937.78;;;26.78;52.55
61394;BME280;48555;50.952;-0.120;2023-08-21T11:46:45;101934.94;;;26.80;52.51
61394;BME280;48555;50.952;-0.120;2023-08-21T11:49:10;101925.63;;;26.82;52.45
61394;BME280;48555;50.952;-0.120;2023-08-21T11:51:39;101925.41;;;26.77;52.31
61394;BME280;48555;50.952;-0.120;2023-08-21T11:54:05;101932.44;;;26.63;52.30
61394;BME280;48555;50.952;-0.120;2023-08-21T11:56:31;101926.91;;;26.50;52.63
61394;BME280;48555;50.952;-0.120;2023-08-21T11:58:56;101919.31;;;26.39;52.81
61394;BME280;48555;50.952;-0.120;2023-08-21T12:01:24;101926.25;;;26.33;53.32
61394;BME280;48555;50.952;-0.120;2023-08-21T12:03:49;101923.19;;;26.36;53.53
61394;BME280;48555;50.952;-0.120;2023-08-21T12:06:20;101913.22;;;26.30;53.88
61394;BME280;48555;50.952;-0.120;2023-08-21T12:08:46;101908.66;;;26.45;53.28
61394;BME280;48555;50.952;-0.120;2023-08-21T12:11:12;101913.59;;;26.57;53.40
61394;BME280;48555;50.952;-0.120;2023-08-21T12:13:37;101906.66;;;26.62;53.20
61394;BME280;48555;50.952;-0.120;2023-08-21T12:16:03;101908.03;;;26.58;52.74
61394;BME280;48555;50.952;-0.120;2023-08-21T12:18:29;101902.59;;;26.52;52.78
61394;BME280;48555;50.952;-0.120;2023-08-21T12:20:54;101895.06;;;26.47;52.76
61394;BME280;48555;50.952;-0.120;2023-08-21T12:23:19;101893.41;;;26.46;52.92
61394;BME280;48555;50.952;-0.120;2023-08-21T12:25:45;101893.03;;;26.49;54.08
61394;BME280;48555;50.952;-0.120;2023-08-21T12:28:11;101901.19;;;26.56;53.72
61394;BME280;48555;50.952;-0.120;2023-08-21T12:30:36;101903.09;;;26.62;53.86
61394;BME280;48555;50.952;-0.120;2023-08-21T12:33:02;101906.50;;;26.70;53.83
61394;BME280;48555;50.952;-0.120;2023-08-21T12:35:27;101907.06;;;26.81;54.46
61394;BME280;48555;50.952;-0.120;2023-08-21T12:37:57;101901.97;;;26.86;53.96
61394;BME280;48555;50.952;-0.120;2023-08-21T12:40:23;101903.25;;;26.90;53.76
61394;BME280;48555;50.952;-0.120;2023-08-21T12:42:48;101894.91;;;26.85;53.27
61394;BME280;48555;50.952;-0.120;2023-08-21T12:45:14;101889.66;;;26.77;53.29
61394;BME280;48555;50.952;-0.120;2023-08-21T12:47:39;101895.06;;;26.62;53.29
61394;BME280;48555;50.952;-0.120;2023-08-21T12:50:05;101891.91;;;26.43;52.98